Portada
METAR-TAF:

METAR-TAF

Aeroports :

Aeroport Internacional Diori Hamani

Niamey, Níger

latitud: 13-29N, longitud: 002-10E, altitud: 223 m

Observació

L'informe es va fer fa 20 minuts, a les 06:00 UTC
Vent 3 kt del Nord/Nord-Est
Temperatura 18°C
Humitat 32%
Pressió 1012 hPa
Visibilitat: 7000 m

METAR: DRRN 110600Z 02003KT 7000 NSC 18/01 Q1012 TEMPO 4000 DU

Hora: 07:20 (06:20 UTC)

Pronòstic

L'informe es va fer fa 1 hora i 20 minuts, a les 05:00 UTC
Pronòstic vàlid del 11 a les 06 UTC al 12 a les 12 UTC
Vent 10 kt del Est
Visibilitat: 8000 m
Temporalment
l' 11 a les 06 UTC al 11 a les 09 UTC
Visibilitat: 3500 m
Pols estès
Temporalment
l' 11 a les 17 UTC al 11 a les 21 UTC
Visibilitat: 3500 m
Pols estès
Temporalment
l' 12 a les 06 UTC al 12 a les 09 UTC
Visibilitat: 3500 m
Pols estès

TAF: DRRN 110500Z 1106/1212 08010KT 8000 NSC TEMPO 1106/1109 3500 DU TEMPO 1117/1121 3500 DU TEMPO 1206/1209 3500 DU

Observacions i pronòstics meteorològics de més de 4000 aeroports (METAR i TAF).

Les estacions disponibles són els punts grocs i vermells al mapa.

Posi el ratolí al punt desitjat per veure el nom de l'estació.

Feu clic per veure les observacions i els pronòstics meteorològics.

Per canviar el mapa: feu clic els botons verds amb una creu de color negre per apropar; al botó verd amb un guió per allunyar la imatge; o en les fletxes verdes per a mapes adjacents.


METAR-TAF: